Time;durP1;ratioP1;P1;durP2;ratioP2;P2;SDS_P1;SDS_P2;PMS_P1;PMS_P2;Temp;Humidity;BMP_temperature;BMP_pressure;BME280_temperature;BME280_humidity;BME280_pressure;Samples;Min_cycle;Max_cycle;Signal;HPM_P1;HPM_P2
2023/11/28 00:01:05;;;;;;;1.00;0.70;;;4.10;87.70;;;;;;5017994;28;20276;-75
2023/11/28 00:03:34;;;;;;;0.90;0.73;;;4.00;88.00;;;;;;5027977;28;20419;-75
2023/11/28 00:05:59;;;;;;;0.70;0.53;;;4.00;88.30;;;;;;5024944;28;20423;-76
2023/11/28 00:08:26;;;;;;;1.00;0.60;;;4.00;88.40;;;;;;5030187;28;20427;-74
2023/11/28 00:10:53;;;;;;;2.20;0.77;;;3.90;88.60;;;;;;5021170;28;20291;-76
2023/11/28 00:13:19;;;;;;;1.00;0.80;;;3.90;88.90;;;;;;5027878;28;20802;-75
2023/11/28 00:15:44;;;;;;;1.07;0.80;;;3.90;89.00;;;;;;5018384;28;20948;-75
2023/11/28 00:18:10;;;;;;;0.90;0.60;;;3.80;89.20;;;;;;5027675;28;20479;-74
2023/11/28 00:20:36;;;;;;;1.03;0.70;;;3.80;89.30;;;;;;5016622;28;20201;-75
2023/11/28 00:23:01;;;;;;;1.47;0.90;;;3.80;89.50;;;;;;5021109;28;20662;-74
2023/11/28 00:25:27;;;;;;;1.40;0.90;;;3.90;89.50;;;;;;5019083;28;20184;-76
2023/11/28 00:27:53;;;;;;;2.03;1.00;;;3.90;89.30;;;;;;5020501;28;20185;-76
2023/11/28 00:30:19;;;;;;;1.73;0.93;;;3.90;89.20;;;;;;5018018;28;20501;-77
2023/11/28 00:32:45;;;;;;;1.27;0.83;;;3.90;89.30;;;;;;5020202;28;20263;-76
2023/11/28 00:35:11;;;;;;;1.07;0.80;;;4.00;89.20;;;;;;5022018;28;20186;-77
2023/11/28 00:37:37;;;;;;;1.93;1.00;;;4.00;89.00;;;;;;5020928;28;20468;-75
2023/11/28 00:40:10;;;;;;;1.83;0.90;;;4.00;89.20;;;;;;5016284;28;20237;-76
2023/11/28 00:42:36;;;;;;;1.07;0.70;;;4.00;88.90;;;;;;5021852;28;20416;-73
2023/11/28 00:45:04;;;;;;;1.67;0.87;;;4.00;89.20;;;;;;5021384;28;20421;-73
2023/11/28 00:47:29;;;;;;;1.93;1.07;;;4.00;89.00;;;;;;5021987;28;20278;-76
2023/11/28 00:49:55;;;;;;;1.07;0.60;;;4.10;88.90;;;;;;5017688;28;20996;-75
2023/11/28 00:52:21;;;;;;;1.33;0.90;;;4.10;89.00;;;;;;5022704;28;20188;-75
2023/11/28 00:54:47;;;;;;;1.10;0.70;;;4.10;88.90;;;;;;5020955;28;20288;-75
2023/11/28 00:57:13;;;;;;;1.43;0.80;;;4.10;89.00;;;;;;5022912;28;20217;-74
2023/11/28 00:59:41;;;;;;;0.93;0.60;;;4.10;88.90;;;;;;5016312;28;20455;-74
2023/11/28 01:02:08;;;;;;;1.43;1.20;;;4.20;88.70;;;;;;5024249;28;20558;-75
2023/11/28 01:04:34;;;;;;;1.63;0.90;;;4.20;88.70;;;;;;5026975;28;20424;-75
2023/11/28 01:07:00;;;;;;;1.63;1.10;;;4.20;88.40;;;;;;5024052;28;20955;-76
2023/11/28 01:09:26;;;;;;;1.80;1.10;;;4.20;88.60;;;;;;5022931;28;20476;-75
2023/11/28 01:11:51;;;;;;;1.23;0.90;;;4.30;88.40;;;;;;5017591;28;20451;-76
2023/11/28 01:14:18;;;;;;;0.87;0.77;;;4.30;88.30;;;;;;5027122;28;20187;-76
2023/11/28 01:16:45;;;;;;;1.30;1.10;;;4.30;88.10;;;;;;5022491;28;20185;-75
2023/11/28 01:19:11;;;;;;;1.00;1.00;;;4.40;87.70;;;;;;5024241;28;20479;-75
2023/11/28 01:21:37;;;;;;;1.63;0.70;;;4.40;87.60;;;;;;5025096;28;20432;-75
2023/11/28 01:24:02;;;;;;;1.27;0.70;;;4.40;87.40;;;;;;5020313;28;20216;-74
2023/11/28 01:26:28;;;;;;;0.80;0.60;;;4.50;87.40;;;;;;5022859;28;20209;-75
2023/11/28 01:28:54;;;;;;;1.50;0.73;;;4.50;87.40;;;;;;5029233;28;20188;-74
2023/11/28 01:31:19;;;;;;;2.40;0.83;;;4.50;87.40;;;;;;5025274;28;20743;-74
2023/11/28 01:33:45;;;;;;;1.20;0.90;;;4.50;87.30;;;;;;5021596;28;20328;-74
2023/11/28 01:36:11;;;;;;;1.03;0.60;;;4.50;87.30;;;;;;5021155;28;20193;-75
2023/11/28 01:38:39;;;;;;;1.47;0.90;;;4.50;87.30;;;;;;5023708;28;20210;-74
2023/11/28 01:41:05;;;;;;;1.10;0.80;;;4.50;87.10;;;;;;5027313;28;20464;-75
2023/11/28 01:43:31;;;;;;;1.47;0.90;;;4.50;87.30;;;;;;5025101;28;20473;-75
2023/11/28 01:46:05;;;;;;;1.00;0.70;;;4.60;87.10;;;;;;5026443;28;20416;-74
2023/11/28 01:48:31;;;;;;;1.53;0.90;;;4.60;86.90;;;;;;5018102;28;20193;-73
2023/11/28 01:50:57;;;;;;;0.93;0.67;;;4.70;86.60;;;;;;5019177;28;20457;-76
2023/11/28 01:53:23;;;;;;;1.10;0.60;;;4.70;86.60;;;;;;5024811;28;20447;-76
2023/11/28 01:55:50;;;;;;;1.10;0.80;;;4.70;86.60;;;;;;5025549;28;20189;-76
2023/11/28 01:58:16;;;;;;;2.00;0.70;;;4.70;86.80;;;;;;5021828;28;20950;-76
2023/11/28 02:00:43;;;;;;;3.20;1.03;;;4.70;86.80;;;;;;5017453;28;20543;-77
2023/11/28 02:03:11;;;;;;;1.43;0.77;;;4.70;86.90;;;;;;5023587;28;20211;-74
2023/11/28 02:05:38;;;;;;;1.27;1.00;;;4.80;86.90;;;;;;5025922;28;20802;-75
2023/11/28 02:08:07;;;;;;;1.80;1.20;;;4.80;86.90;;;;;;5020161;28;20950;-73
2023/11/28 02:10:35;;;;;;;0.80;0.67;;;4.80;86.80;;;;;;5024092;28;20494;-73
2023/11/28 02:13:01;;;;;;;1.00;0.80;;;4.80;86.80;;;;;;5022978;28;20499;-74
2023/11/28 02:15:44;;;;;;;1.43;0.77;;;4.80;86.80;;;;;;5024771;28;20515;-74
2023/11/28 02:18:10;;;;;;;1.20;0.80;;;4.90;86.60;;;;;;5026803;28;20461;-74
2023/11/28 02:20:37;;;;;;;1.47;0.80;;;4.90;86.20;;;;;;5025031;28;20456;-74
2023/11/28 02:23:03;;;;;;;9.13;1.20;;;4.90;86.50;;;;;;5026143;28;20507;-74
2023/11/28 02:25:34;;;;;;;1.23;0.90;;;5.00;86.50;;;;;;5022631;28;20487;-75
2023/11/28 02:28:00;;;;;;;1.43;0.83;;;5.00;86.50;;;;;;5020326;28;20428;-76
2023/11/28 02:30:26;;;;;;;1.03;0.83;;;5.00;86.30;;;;;;5018658;28;20460;-74
2023/11/28 02:32:51;;;;;;;0.77;0.70;;;5.10;86.30;;;;;;5024190;28;20518;-75
2023/11/28 02:35:17;;;;;;;1.93;0.90;;;5.10;86.20;;;;;;5025418;28;20493;-72
2023/11/28 02:37:43;;;;;;;2.00;0.83;;;5.10;86.00;;;;;;5027459;28;20883;-72
2023/11/28 02:40:08;;;;;;;0.93;0.80;;;5.10;86.20;;;;;;5027562;28;20236;-74
2023/11/28 02:42:34;;;;;;;1.10;0.80;;;5.10;86.50;;;;;;5023117;28;20284;-74
2023/11/28 02:44:59;;;;;;;1.30;0.70;;;5.00;86.90;;;;;;5023248;28;20443;-74
2023/11/28 02:47:25;;;;;;;1.70;1.00;;;5.00;87.30;;;;;;5027402;28;20230;-74
2023/11/28 02:49:51;;;;;;;1.57;0.87;;;5.00;87.70;;;;;;5026577;28;20205;-73
2023/11/28 02:52:16;;;;;;;1.40;1.07;;;5.00;88.00;;;;;;5024329;28;20272;-74
2023/11/28 02:54:42;;;;;;;1.10;0.87;;;4.90;88.30;;;;;;5034655;28;20688;-76
2023/11/28 02:57:08;;;;;;;1.50;1.00;;;5.00;88.30;;;;;;5022098;28;20549;-74
2023/11/28 02:59:33;;;;;;;4.50;0.90;;;4.90;88.40;;;;;;5020524;28;20213;-76
2023/11/28 03:01:59;;;;;;;1.00;0.80;;;4.90;88.60;;;;;;5025586;28;20452;-74
2023/11/28 03:04:25;;;;;;;2.00;1.23;;;5.00;88.40;;;;;;5023494;28;20287;-77
2023/11/28 03:06:50;;;;;;;2.27;0.90;;;5.00;88.40;;;;;;5023260;28;20188;-73
2023/11/28 03:09:16;;;;;;;3.03;0.90;;;5.00;88.60;;;;;;5021627;28;20272;-75
2023/11/28 03:11:43;;;;;;;1.57;0.93;;;5.00;88.60;;;;;;5020945;28;20235;-74
2023/11/28 03:14:08;;;;;;;1.10;0.70;;;5.10;88.60;;;;;;5025866;28;20559;-74
2023/11/28 03:16:34;;;;;;;1.43;1.13;;;5.00;88.60;;;;;;5028923;28;20924;-75
2023/11/28 03:18:59;;;;;;;1.20;1.00;;;5.10;88.60;;;;;;5030765;28;20212;-74
2023/11/28 03:21:25;;;;;;;1.20;0.80;;;5.10;88.40;;;;;;5031026;28;20238;-75
2023/11/28 03:23:50;;;;;;;1.30;0.90;;;5.10;88.40;;;;;;5029848;28;20177;-75
2023/11/28 03:26:16;;;;;;;1.47;1.00;;;5.10;88.40;;;;;;5023823;28;20182;-75
2023/11/28 03:28:41;;;;;;;1.30;0.93;;;5.10;88.40;;;;;;5020483;28;20260;-74
2023/11/28 03:31:07;;;;;;;1.30;1.07;;;5.10;88.60;;;;;;5023345;28;20274;-73
2023/11/28 03:33:34;;;;;;;1.53;0.77;;;5.10;88.90;;;;;;5024483;28;20284;-75
2023/11/28 03:35:59;;;;;;;1.23;0.80;;;5.10;89.00;;;;;;5024886;28;20431;-75
2023/11/28 03:38:25;;;;;;;1.17;0.80;;;5.00;88.90;;;;;;5024302;28;20533;-76
2023/11/28 03:40:50;;;;;;;1.27;0.70;;;5.00;89.00;;;;;;5018211;28;20210;-74
2023/11/28 03:43:16;;;;;;;0.93;0.80;;;5.00;89.20;;;;;;5025023;28;20539;-76
2023/11/28 03:45:42;;;;;;;1.20;0.73;;;4.90;89.00;;;;;;5020674;28;20618;-77
2023/11/28 03:48:07;;;;;;;3.07;0.77;;;4.90;89.00;;;;;;5024525;28;20549;-76
2023/11/28 03:50:33;;;;;;;2.90;0.60;;;4.90;89.20;;;;;;5027961;28;20217;-75
2023/11/28 03:52:59;;;;;;;0.70;0.50;;;4.90;89.20;;;;;;5025765;28;20288;-76
2023/11/28 03:55:24;;;;;;;0.80;0.50;;;4.90;89.00;;;;;;5031634;28;20190;-76
2023/11/28 03:57:50;;;;;;;0.67;0.60;;;4.90;88.90;;;;;;5026238;28;20593;-77
2023/11/28 04:00:16;;;;;;;1.00;0.80;;;4.90;89.00;;;;;;5024948;28;20212;-77
2023/11/28 04:02:42;;;;;;;1.10;0.63;;;4.90;88.90;;;;;;5027571;28;20177;-77
2023/11/28 04:05:08;;;;;;;0.70;0.60;;;4.90;89.00;;;;;;5025645;28;20181;-78
2023/11/28 04:07:34;;;;;;;0.80;0.70;;;4.90;89.20;;;;;;5028928;28;20184;-77
2023/11/28 04:10:00;;;;;;;1.63;0.73;;;4.90;89.30;;;;;;5021977;28;20463;-77
2023/11/28 04:12:26;;;;;;;1.50;0.73;;;4.90;89.30;;;;;;5027152;28;20610;-78
2023/11/28 04:14:52;;;;;;;1.00;0.60;;;4.90;89.00;;;;;;5026156;28;20423;-77
2023/11/28 04:17:17;;;;;;;1.03;0.60;;;4.90;89.00;;;;;;5026638;28;20189;-76
2023/11/28 04:19:43;;;;;;;1.00;0.67;;;5.00;89.00;;;;;;5025283;28;20209;-76
2023/11/28 04:22:10;;;;;;;0.90;0.60;;;5.00;89.00;;;;;;5029089;28;20182;-76
2023/11/28 04:24:36;;;;;;;1.20;0.80;;;5.00;89.00;;;;;;5027387;28;20558;-76
2023/11/28 04:27:01;;;;;;;1.37;0.80;;;5.00;89.20;;;;;;5022777;28;20428;-76
2023/11/28 04:29:27;;;;;;;2.30;0.80;;;5.00;88.70;;;;;;5021465;28;20759;-77
2023/11/28 04:31:53;;;;;;;0.80;0.60;;;5.00;88.90;;;;;;5027170;28;20215;-77
2023/11/28 04:34:18;;;;;;;0.70;0.60;;;5.00;89.00;;;;;;5022953;28;20190;-77
2023/11/28 04:36:44;;;;;;;0.70;0.60;;;5.00;88.90;;;;;;5023658;28;20178;-78
2023/11/28 04:39:11;;;;;;;0.80;0.60;;;5.00;88.70;;;;;;5023145;28;20355;-78
2023/11/28 04:41:36;;;;;;;3.47;0.70;;;5.00;88.60;;;;;;5018078;28;20252;-79
2023/11/28 04:44:02;;;;;;;0.80;0.70;;;5.10;88.60;;;;;;5027868;28;20944;-79
2023/11/28 04:46:28;;;;;;;0.90;0.53;;;5.10;88.40;;;;;;5021200;28;20177;-79
2023/11/28 04:48:54;;;;;;;1.93;0.93;;;5.10;88.60;;;;;;5027007;28;20653;-77
2023/11/28 04:51:20;;;;;;;1.20;0.90;;;5.10;88.40;;;;;;5016275;28;20205;-78
2023/11/28 04:53:45;;;;;;;1.80;0.87;;;5.10;88.90;;;;;;5025916;28;20537;-77
2023/11/28 04:56:11;;;;;;;1.60;0.80;;;5.10;89.20;;;;;;5021986;28;20214;-76
2023/11/28 04:58:37;;;;;;;0.80;0.70;;;5.00;88.90;;;;;;5027313;28;20197;-79
2023/11/28 05:01:03;;;;;;;2.50;0.80;;;5.00;88.90;;;;;;5017416;28;20632;-80
2023/11/28 05:03:29;;;;;;;1.57;0.40;;;5.00;88.70;;;;;;5030097;28;20288;-77
2023/11/28 05:05:55;;;;;;;1.80;0.73;;;5.00;88.70;;;;;;5025143;28;20508;-78
2023/11/28 05:08:20;;;;;;;1.50;0.80;;;5.00;88.40;;;;;;5032595;28;20260;-78
2023/11/28 05:10:46;;;;;;;1.13;0.70;;;5.10;88.70;;;;;;5020134;28;20221;-78
2023/11/28 05:13:12;;;;;;;1.47;0.60;;;5.00;88.70;;;;;;5024645;28;20303;-77
2023/11/28 05:15:37;;;;;;;0.80;0.60;;;5.10;89.00;;;;;;5023909;28;20174;-78
2023/11/28 05:18:03;;;;;;;0.80;0.50;;;5.10;88.90;;;;;;5031877;28;20221;-77
2023/11/28 05:20:28;;;;;;;3.77;0.80;;;5.10;88.70;;;;;;5023553;28;20574;-78
2023/11/28 05:22:56;;;;;;;0.80;0.60;;;5.10;88.90;;;;;;5029262;28;20181;-78
2023/11/28 05:25:21;;;;;;;1.53;0.70;;;5.10;89.00;;;;;;5020290;28;20189;-78
2023/11/28 05:27:47;;;;;;;0.80;0.53;;;5.10;89.20;;;;;;5026633;28;20552;-78
2023/11/28 05:30:13;;;;;;;1.30;1.00;;;5.20;89.30;;;;;;5015848;28;20209;-79
2023/11/28 05:32:38;;;;;;;1.67;1.23;;;5.20;89.30;;;;;;5021275;28;20194;-79
2023/11/28 05:35:05;;;;;;;1.77;1.37;;;5.10;89.30;;;;;;5021273;28;20755;-77
2023/11/28 05:37:31;;;;;;;2.30;1.53;;;5.10;89.30;;;;;;5022774;28;20292;-80
2023/11/28 05:39:58;;;;;;;3.20;1.77;;;5.20;89.20;;;;;;5014967;28;20544;-78
2023/11/28 05:42:23;;;;;;;2.83;2.10;;;5.20;88.90;;;;;;5023947;28;20177;-79
2023/11/28 05:44:49;;;;;;;3.70;2.00;;;5.20;88.60;;;;;;5022664;28;20782;-75
2023/11/28 05:47:15;;;;;;;2.63;2.03;;;5.10;88.30;;;;;;5025422;28;20209;-78
2023/11/28 05:49:40;;;;;;;2.60;2.00;;;5.20;88.30;;;;;;5020453;28;20205;-78
2023/11/28 05:52:06;;;;;;;3.30;2.30;;;5.20;88.10;;;;;;5024642;28;20196;-80
2023/11/28 05:54:32;;;;;;;3.03;2.30;;;5.10;88.00;;;;;;5021064;28;20205;-78
2023/11/28 05:56:57;;;;;;;6.37;2.20;;;5.10;87.70;;;;;;5024007;28;20940;-75
2023/11/28 05:59:23;;;;;;;3.30;2.10;;;5.10;87.40;;;;;;5020454;28;20237;-76
2023/11/28 06:02:05;;;;;;;3.13;2.57;;;5.10;87.40;;;;;;5029224;28;20571;-75
2023/11/28 06:04:31;;;;;;;3.77;2.60;;;5.20;87.40;;;;;;5025329;28;20331;-74
2023/11/28 06:06:57;;;;;;;3.23;2.20;;;5.10;87.00;;;;;;5020578;28;20498;-75
2023/11/28 06:09:24;;;;;;;3.57;2.20;;;5.10;87.10;;;;;;5022319;28;20443;-76
2023/11/28 06:11:52;;;;;;;3.07;2.20;;;5.00;87.10;;;;;;5014724;28;20424;-74
2023/11/28 06:14:19;;;;;;;2.83;2.07;;;5.00;86.60;;;;;;5022223;28;20429;-76
2023/11/28 06:16:45;;;;;;;3.93;2.07;;;4.90;86.60;;;;;;5022975;28;20421;-79
2023/11/28 06:19:11;;;;;;;2.97;2.40;;;4.90;86.50;;;;;;5035074;28;20479;-79
2023/11/28 06:21:37;;;;;;;3.40;2.50;;;4.80;86.50;;;;;;5031477;28;20628;-81
2023/11/28 06:24:03;;;;;;;3.07;2.27;;;4.80;86.50;;;;;;5029817;28;20178;-80
2023/11/28 06:26:31;;;;;;;3.50;2.07;;;4.80;86.60;;;;;;5029619;28;20489;-81
2023/11/28 06:28:56;;;;;;;3.10;1.83;;;4.70;86.60;;;;;;5040693;28;21111;-78
2023/11/28 06:31:22;;;;;;;2.57;1.90;;;4.60;86.90;;;;;;5030053;28;20558;-80
2023/11/28 06:33:48;;;;;;;3.53;2.10;;;4.60;86.90;;;;;;5032503;28;20248;-80
2023/11/28 06:36:14;;;;;;;3.00;2.30;;;4.60;87.00;;;;;;5028069;28;20186;-78
2023/11/28 06:38:41;;;;;;;3.03;2.17;;;4.50;87.10;;;;;;5030233;28;20486;-78
2023/11/28 06:41:07;;;;;;;4.33;2.57;;;4.50;87.30;;;;;;5037710;28;20229;-81
2023/11/28 06:43:33;;;;;;;5.43;2.23;;;4.50;87.30;;;;;;5034334;28;20423;-78
2023/11/28 06:46:00;;;;;;;3.60;2.20;;;4.60;87.60;;;;;;5034118;28;20412;-77
2023/11/28 06:48:26;;;;;;;4.17;2.70;;;4.50;87.60;;;;;;5035369;28;20425;-80
2023/11/28 06:50:52;;;;;;;2.00;1.40;;;4.50;87.60;;;;;;5037638;28;20514;-78
2023/11/28 06:53:18;;;;;;;3.63;1.30;;;3.90;87.00;;;;;;5044654;28;20205;-82
2023/11/28 06:55:45;;;;;;;1.60;1.20;;;3.50;87.00;;;;;;5045006;28;20466;-80
2023/11/28 06:58:11;;;;;;;1.83;1.40;;;3.30;87.10;;;;;;5044520;28;20213;-79
2023/11/28 07:00:36;;;;;;;1.47;1.40;;;3.20;87.60;;;;;;5035876;28;20201;-80
2023/11/28 07:03:03;;;;;;;2.37;1.50;;;3.10;87.80;;;;;;5039335;28;20430;-81
2023/11/28 07:05:29;;;;;;;1.53;1.47;;;3.00;88.00;;;;;;5040352;28;20197;-82
2023/11/28 07:07:55;;;;;;;2.20;1.70;;;2.80;88.10;;;;;;5030675;28;20463;-78
2023/11/28 07:10:21;;;;;;;1.80;1.80;;;2.80;87.80;;;;;;5036646;28;20271;-79
2023/11/28 07:12:47;;;;;;;1.80;1.70;;;2.80;88.10;;;;;;5030345;28;20882;-79
2023/11/28 07:15:13;;;;;;;2.60;2.10;;;2.80;88.30;;;;;;5034638;28;20190;-82
2023/11/28 07:17:39;;;;;;;2.05;1.60;;;2.80;88.30;;;;;;5033799;28;20205;-78
2023/11/28 07:20:06;;;;;;;2.87;1.93;;;2.80;88.60;;;;;;5028421;28;20213;-79
2023/11/28 07:22:32;;;;;;;3.97;2.10;;;2.70;88.30;;;;;;5038733;28;20434;-80
2023/11/28 07:24:58;;;;;;;2.80;2.00;;;2.70;88.40;;;;;;5032174;28;20189;-81
2023/11/28 07:27:23;;;;;;;2.80;2.10;;;2.70;88.70;;;;;;5033514;28;20490;-80
2023/11/28 07:29:49;;;;;;;3.40;2.13;;;2.60;88.40;;;;;;5031860;28;20716;-80
2023/11/28 07:32:16;;;;;;;3.57;2.10;;;2.70;88.40;;;;;;5028761;28;20188;-80
2023/11/28 07:34:42;;;;;;;3.40;1.97;;;2.70;88.70;;;;;;5028579;28;20552;-79
2023/11/28 07:37:08;;;;;;;2.77;2.27;;;2.70;88.70;;;;;;5033888;28;20415;-81
2023/11/28 07:39:33;;;;;;;2.20;2.00;;;2.70;88.30;;;;;;5036133;28;20217;-80
2023/11/28 07:41:59;;;;;;;3.00;1.83;;;2.70;88.30;;;;;;5035503;28;20628;-79
2023/11/28 07:44:25;;;;;;;3.20;2.20;;;2.60;87.80;;;;;;5030285;28;20192;-78
2023/11/28 07:46:51;;;;;;;2.17;1.70;;;2.70;87.80;;;;;;5034317;28;20200;-81
2023/11/28 07:49:16;;;;;;;2.90;2.67;;;2.60;87.70;;;;;;5037157;28;20251;-80
2023/11/28 07:51:43;;;;;;;1.63;1.30;;;2.70;87.70;;;;;;5048410;28;20428;-82
2023/11/28 07:54:09;;;;;;;2.53;1.95;;;2.70;87.70;;;;;;5044246;28;20681;-80
2023/11/28 07:56:34;;;;;;;3.67;2.90;;;2.60;87.40;;;;;;5041253;28;20189;-81
2023/11/28 07:59:00;;;;;;;3.17;2.50;;;2.60;87.70;;;;;;5035482;28;20681;-81
2023/11/28 08:01:26;;;;;;;2.10;2.00;;;2.60;87.80;;;;;;5044732;28;20189;-82
2023/11/28 08:03:52;;;;;;;2.30;2.00;;;2.60;88.00;;;;;;5043297;28;20252;-81
2023/11/28 08:06:18;;;;;;;3.20;2.50;;;2.50;87.70;;;;;;5036809;28;20433;-81
2023/11/28 08:08:45;;;;;;;3.15;2.25;;;2.50;87.70;;;;;;5040870;28;20189;-82
2023/11/28 08:11:10;;;;;;;3.13;2.60;;;2.50;87.70;;;;;;5043229;28;20213;-81
2023/11/28 08:13:39;;;;;;;1.93;1.57;;;2.50;87.80;;;;;;5037146;28;20421;-82
2023/11/28 08:16:05;;;;;;;4.35;2.80;;;2.50;88.00;;;;;;5037622;28;20425;-80
2023/11/28 08:18:31;;;;;;;4.82;3.40;;;2.30;87.40;;;;;;5032411;28;20228;-80
2023/11/28 08:20:58;;;;;;;3.60;2.63;;;2.30;87.60;;;;;;5035979;28;20210;-81
2023/11/28 08:23:23;;;;;;;2.97;2.33;;;2.30;87.70;;;;;;5040816;28;20430;-80
2023/11/28 08:25:49;;;;;;;4.63;3.03;;;2.30;87.70;;;;;;5040418;28;20209;-79
2023/11/28 08:28:15;;;;;;;4.37;3.20;;;2.30;87.80;;;;;;5034721;28;20190;-81
2023/11/28 08:30:41;;;;;;;5.83;3.40;;;2.30;87.60;;;;;;5035620;28;20467;-81
2023/11/28 08:33:08;;;;;;;4.63;3.30;;;2.30;87.60;;;;;;5024318;28;20197;-83
2023/11/28 08:35:33;;;;;;;5.18;3.83;;;2.40;87.70;;;;;;5030767;28;20431;-80
2023/11/28 08:37:59;;;;;;;4.30;3.40;;;2.40;87.80;;;;;;5037763;28;20209;-83
2023/11/28 08:40:25;;;;;;;5.97;4.00;;;2.40;87.80;;;;;;5028651;28;20287;-81
2023/11/28 08:42:50;;;;;;;4.53;3.37;;;2.40;87.80;;;;;;5026696;28;20189;-81
2023/11/28 08:45:16;;;;;;;4.13;3.10;;;2.40;88.00;;;;;;5028715;28;20235;-81
2023/11/28 08:47:41;;;;;;;3.07;2.67;;;2.40;88.10;;;;;;5033651;28;20253;-79
2023/11/28 08:50:07;;;;;;;3.80;3.07;;;2.40;88.10;;;;;;5046841;28;20294;-82
2023/11/28 08:52:33;;;;;;;4.40;3.17;;;2.30;87.60;;;;;;5044162;28;20292;-81
2023/11/28 08:55:00;;;;;;;3.53;2.67;;;2.40;87.70;;;;;;5029562;28;20440;-81
2023/11/28 08:57:33;;;;;;;5.40;3.45;;;2.30;87.80;;;;;;5028252;28;20187;-80
2023/11/28 09:00:00;;;;;;;4.78;3.40;;;2.30;88.00;;;;;;5028866;28;20273;-80
2023/11/28 09:02:26;;;;;;;2.83;2.35;;;2.20;88.00;;;;;;5027078;28;20248;-79
2023/11/28 09:04:51;;;;;;;4.87;3.03;;;2.20;88.00;;;;;;5027893;28;20189;-79
2023/11/28 09:07:17;;;;;;;4.07;2.90;;;2.20;88.00;;;;;;5035125;28;20201;-81
2023/11/28 09:09:42;;;;;;;4.10;2.53;;;2.30;88.30;;;;;;5025042;28;20214;-80
2023/11/28 09:12:08;;;;;;;3.17;3.03;;;2.20;88.40;;;;;;5031991;28;20197;-80
2023/11/28 09:14:34;;;;;;;3.00;2.30;;;2.20;88.40;;;;;;5023374;28;20213;-81
2023/11/28 09:16:59;;;;;;;3.10;2.27;;;2.20;88.60;;;;;;5023475;28;20525;-80
2023/11/28 09:19:25;;;;;;;2.57;2.43;;;2.20;88.60;;;;;;5030104;28;20348;-80
2023/11/28 09:21:50;;;;;;;3.73;2.80;;;2.20;88.70;;;;;;5025106;28;20186;-80
2023/11/28 09:24:16;;;;;;;3.43;2.37;;;2.10;88.70;;;;;;5030513;28;20256;-79
2023/11/28 09:26:42;;;;;;;3.00;1.90;;;2.00;88.70;;;;;;5032896;28;20232;-80
2023/11/28 09:29:07;;;;;;;2.57;2.10;;;2.10;88.70;;;;;;5028890;28;20432;-80
2023/11/28 09:31:36;;;;;;;2.97;2.30;;;2.10;88.60;;;;;;5039274;28;20283;-80
2023/11/28 09:34:02;;;;;;;4.10;2.55;;;2.00;88.60;;;;;;5038710;28;20181;-79
2023/11/28 09:36:28;;;;;;;4.97;2.90;;;2.00;88.90;;;;;;5040812;28;20216;-82
2023/11/28 09:38:58;;;;;;;3.33;2.33;;;2.10;88.70;;;;;;5038511;28;20210;-79
2023/11/28 09:41:25;;;;;;;4.00;3.00;;;2.10;88.90;;;;;;5031219;28;20213;-82
2023/11/28 09:43:52;;;;;;;2.90;2.55;;;2.10;88.70;;;;;;5031753;28;20350;-80
2023/11/28 09:46:22;;;;;;;4.65;2.55;;;2.00;88.90;;;;;;5036695;28;20189;-81
2023/11/28 09:48:53;;;;;;;4.00;2.90;;;2.10;88.70;;;;;;5039069;28;20294;-80
2023/11/28 09:51:25;;;;;;;3.58;2.70;;;2.10;89.00;;;;;;5031361;28;20209;-79
2023/11/28 09:54:00;;;;;;;4.28;3.30;;;1.90;88.40;;;;;;5030986;28;20261;-79
2023/11/28 09:56:26;;;;;;;4.43;2.80;;;1.90;88.30;;;;;;5030521;28;20176;-80
2023/11/28 09:58:56;;;;;;;4.77;2.80;;;1.90;88.60;;;;;;5024371;28;20316;-80
2023/11/28 10:01:22;;;;;;;5.20;3.28;;;1.90;88.70;;;;;;5027779;28;20464;-80
2023/11/28 10:03:48;;;;;;;4.07;2.58;;;1.90;88.90;;;;;;5035866;28;20197;-80
2023/11/28 10:06:20;;;;;;;5.70;2.80;;;1.90;88.70;;;;;;5034517;28;20189;-80
2023/11/28 10:08:48;;;;;;;3.72;2.80;;;1.90;88.70;;;;;;5026355;28;20193;-79
2023/11/28 10:11:17;;;;;;;2.88;2.25;;;2.00;88.70;;;;;;5028443;28;20205;-79
2023/11/28 10:13:46;;;;;;;3.50;2.75;;;2.00;88.70;;;;;;5026397;28;20192;-81
2023/11/28 10:16:13;;;;;;;3.67;2.65;;;2.00;88.60;;;;;;5033539;28;20359;-80
2023/11/28 10:18:47;;;;;;;3.10;2.60;;;2.00;88.40;;;;;;5034284;28;20213;-81
2023/11/28 10:21:14;;;;;;;4.75;2.92;;;2.00;88.40;;;;;;5022525;28;20241;-80
2023/11/28 10:23:45;;;;;;;3.38;3.03;;;2.00;88.10;;;;;;5033456;28;20673;-80
2023/11/28 10:26:12;;;;;;;4.50;3.13;;;1.90;88.00;;;;;;5033664;28;20181;-80
2023/11/28 10:28:37;;;;;;;3.25;2.92;;;1.90;87.60;;;;;;5035073;28;20177;-81
2023/11/28 10:31:06;;;;;;;3.60;3.17;;;1.90;87.70;;;;;;5040961;28;20216;-81
2023/11/28 10:33:33;;;;;;;5.60;3.45;;;2.00;88.00;;;;;;5031062;28;20208;-80
2023/11/28 10:35:59;;;;;;;4.82;3.53;;;2.00;88.00;;;;;;5026214;28;20181;-80
2023/11/28 10:38:27;;;;;;;4.30;3.20;;;2.00;88.00;;;;;;5028731;28;20208;-80
2023/11/28 10:40:55;;;;;;;4.10;3.38;;;2.00;87.60;;;;;;5024502;28;20239;-80
2023/11/28 10:43:21;;;;;;;4.53;3.08;;;1.90;87.30;;;;;;5029349;28;20190;-80
2023/11/28 10:45:47;;;;;;;4.00;3.17;;;1.90;87.40;;;;;;5025272;28;20538;-80
2023/11/28 10:48:13;;;;;;;4.25;3.25;;;1.90;87.10;;;;;;5026093;28;20181;-79
2023/11/28 10:50:44;;;;;;;4.07;3.38;;;2.00;87.30;;;;;;5022658;28;20224;-79
2023/11/28 10:53:13;;;;;;;5.60;3.70;;;2.00;87.10;;;;;;5029519;28;20217;-79
2023/11/28 10:55:47;;;;;;;4.20;3.05;;;2.00;87.10;;;;;;5025456;28;20193;-81
2023/11/28 10:58:15;;;;;;;6.05;3.35;;;2.00;87.00;;;;;;5033244;28;20264;-79
2023/11/28 11:00:44;;;;;;;5.00;3.20;;;2.00;86.80;;;;;;5025833;28;20209;-79
2023/11/28 11:03:12;;;;;;;3.80;2.70;;;1.90;86.90;;;;;;5035953;28;20185;-80
2023/11/28 11:05:39;;;;;;;3.80;3.15;;;1.80;86.80;;;;;;5039413;28;20181;-79
2023/11/28 11:08:05;;;;;;;4.00;3.05;;;1.80;87.00;;;;;;5032878;28;20189;-79
2023/11/28 11:10:33;;;;;;;6.18;4.20;;;1.80;87.00;;;;;;5027625;28;20224;-79
2023/11/28 11:13:11;;;;;;;6.00;3.60;;;1.90;87.00;;;;;;5034206;28;20194;-78
2023/11/28 11:16:19;;;;;;;4.78;3.75;;;1.90;87.10;;;;;;5033430;28;20447;-79
2023/11/28 11:18:48;;;;;;;4.40;3.85;;;1.90;87.10;;;;;;5024353;28;20213;-79
2023/11/28 11:21:30;;;;;;;5.00;4.25;;;1.80;87.00;;;;;;5033479;28;20233;-80
2023/11/28 11:23:56;;;;;;;6.90;4.53;;;1.80;87.10;;;;;;5052704;28;20197;-79
2023/11/28 11:26:29;;;;;;;5.85;4.43;;;1.90;87.00;;;;;;5033580;28;20239;-80
2023/11/28 11:28:57;;;;;;;4.32;3.80;;;1.80;87.00;;;;;;5038663;28;20185;-79
2023/11/28 11:31:23;;;;;;;5.20;4.30;;;1.80;86.80;;;;;;5036076;28;20197;-79
2023/11/28 11:33:49;;;;;;;6.80;3.83;;;1.80;86.20;;;;;;5030195;28;20599;-81
2023/11/28 11:36:15;;;;;;;5.00;4.10;;;1.80;86.20;;;;;;5035740;28;20241;-80
2023/11/28 11:38:45;;;;;;;5.75;3.30;;;1.80;86.30;;;;;;5035578;28;20209;-82
2023/11/28 11:41:11;;;;;;;5.57;3.60;;;1.80;86.30;;;;;;5034348;28;20217;-80
2023/11/28 11:43:39;;;;;;;4.32;3.72;;;1.80;86.80;;;;;;5037514;28;20224;-79
2023/11/28 11:46:13;;;;;;;4.70;3.75;;;1.90;86.90;;;;;;5039128;28;20190;-78
2023/11/28 11:48:40;;;;;;;7.53;4.88;;;1.90;86.90;;;;;;5042187;28;20231;-80
2023/11/28 11:51:06;;;;;;;4.97;4.18;;;1.90;86.60;;;;;;5037874;28;20218;-79
2023/11/28 11:53:33;;;;;;;7.35;4.57;;;1.90;86.60;;;;;;5047478;28;20255;-79
2023/11/28 11:56:02;;;;;;;4.72;4.20;;;1.90;86.50;;;;;;5037516;28;20201;-81
2023/11/28 11:58:29;;;;;;;5.50;4.05;;;1.90;86.80;;;;;;5046978;28;20213;-81
2023/11/28 12:00:54;;;;;;;5.40;4.05;;;2.00;86.90;;;;;;5034145;28;20221;-80
2023/11/28 12:03:21;;;;;;;6.70;4.20;;;1.90;86.50;;;;;;5046684;28;20181;-80
2023/11/28 12:05:51;;;;;;;6.97;4.70;;;1.80;86.30;;;;;;5031099;28;20439;-80
2023/11/28 12:08:17;;;;;;;4.22;2.78;;;1.90;86.30;;;;;;5035675;28;20204;-80
2023/11/28 12:10:42;;;;;;;5.93;4.33;;;1.90;86.50;;;;;;5018959;28;20230;-80
2023/11/28 12:13:10;;;;;;;6.60;4.10;;;1.90;86.00;;;;;;5032155;28;20182;-81
2023/11/28 12:15:36;;;;;;;5.72;4.50;;;2.00;86.30;;;;;;5029517;28;20257;-79
2023/11/28 12:18:12;;;;;;;9.57;4.77;;;1.90;86.50;;;;;;5038535;28;20214;-79
2023/11/28 12:20:39;;;;;;;8.63;5.60;;;1.90;86.20;;;;;;5045019;28;20470;-79
2023/11/28 12:23:08;;;;;;;7.95;5.22;;;1.80;86.30;;;;;;5036904;28;20201;-79
2023/11/28 12:25:40;;;;;;;7.80;5.20;;;1.80;86.80;;;;;;5032572;28;20181;-79
2023/11/28 12:28:05;;;;;;;9.65;5.88;;;1.90;86.90;;;;;;5029449;28;20245;-80
2023/11/28 12:30:34;;;;;;;6.83;5.40;;;1.90;87.00;;;;;;5036203;28;20208;-79
2023/11/28 12:32:59;;;;;;;10.65;6.03;;;1.80;87.10;;;;;;5044727;28;20200;-80
2023/11/28 12:35:27;;;;;;;9.17;6.47;;;1.60;87.40;;;;;;5033446;28;20185;-80
2023/11/28 12:37:53;;;;;;;9.27;6.38;;;1.50;87.60;;;;;;5031230;28;20228;-81
2023/11/28 12:40:21;;;;;;;12.23;6.30;;;1.60;88.10;;;;;;5028081;28;20216;-80
2023/11/28 12:42:48;;;;;;;11.77;7.82;;;1.80;88.30;;;;;;5032274;28;20209;-79
2023/11/28 12:45:13;;;;;;;11.13;7.10;;;1.70;88.30;;;;;;5036507;28;20193;-79
2023/11/28 12:47:40;;;;;;;10.93;7.27;;;1.60;88.30;;;;;;5040305;28;20569;-80
2023/11/28 12:50:08;;;;;;;12.88;7.45;;;1.70;88.40;;;;;;5032484;28;20231;-80
2023/11/28 12:52:35;;;;;;;9.85;6.93;;;1.80;88.60;;;;;;5043915;28;20205;-80
2023/11/28 12:55:03;;;;;;;11.52;7.70;;;1.60;88.10;;;;;;5034853;28;20277;-79